Time;durP1;ratioP1;P1;durP2;ratioP2;P2;SDS_P1;SDS_P2;PMS_P1;PMS_P2;Temp;Humidity;BMP_temperature;BMP_pressure;BME280_temperature;BME280_humidity;BME280_pressure;Samples;Min_cycle;Max_cycle;Signal;HPM_P1;HPM_P2
2022/01/12 00:00:05;;;;;;;23.48;12.77;;;;;;;3.12;77.60;103363.94;5072879;28;20545;-70
2022/01/12 00:02:31;;;;;;;21.48;12.68;;;;;;;3.13;77.69;103368.31;5073330;28;20039;-70
2022/01/12 00:04:57;;;;;;;22.52;13.30;;;;;;;3.15;77.63;103384.28;5076394;28;20033;-70
2022/01/12 00:07:23;;;;;;;20.38;13.00;;;;;;;3.14;76.79;103387.91;5076031;28;20037;-70
2022/01/12 00:09:48;;;;;;;20.83;13.05;;;;;;;3.13;77.06;103386.22;5073394;28;20078;-70
2022/01/12 00:12:13;;;;;;;23.13;13.18;;;;;;;3.12;76.95;103389.84;5075686;28;20028;-70
2022/01/12 00:14:38;;;;;;;22.35;12.70;;;;;;;3.11;77.35;103389.00;5074419;28;20447;-70
2022/01/12 00:17:04;;;;;;;21.23;13.10;;;;;;;3.10;76.97;103391.78;5075831;28;20024;-70
2022/01/12 00:19:29;;;;;;;25.15;13.90;;;;;;;3.09;77.31;103390.06;5062935;28;20023;-71
2022/01/12 00:21:56;;;;;;;19.95;13.07;;;;;;;3.11;77.37;103394.34;5055716;28;20032;-70
2022/01/12 00:24:24;;;;;;;23.25;13.40;;;;;;;3.11;76.97;103397.03;5055743;28;20108;-70
2022/01/12 00:35:01;;;;;;;22.42;13.80;;;;;;;3.13;77.25;103405.78;5075552;28;20075;-70
2022/01/12 00:37:27;;;;;;;26.70;14.13;;;;;;;3.09;76.95;103415.00;5075295;28;20056;-70
2022/01/12 00:39:58;;;;;;;19.95;13.02;;;;;;;3.12;77.28;103416.59;5058900;28;20108;-70
2022/01/12 00:42:26;;;;;;;23.58;13.70;;;;;;;3.13;77.33;103421.84;5055354;28;20036;-70
2022/01/12 00:44:53;;;;;;;25.35;14.23;;;;;;;3.14;77.33;103425.34;5055320;28;20036;-70
2022/01/12 00:47:18;;;;;;;26.10;14.07;;;;;;;3.12;77.29;103429.97;5055297;28;20036;-70
2022/01/12 00:49:43;;;;;;;27.38;14.23;;;;;;;3.10;78.18;103438.13;5067158;28;20028;-70
2022/01/12 00:52:09;;;;;;;24.17;14.45;;;;;;;3.11;78.16;103436.28;5075519;28;20446;-70
2022/01/12 00:54:34;;;;;;;25.02;14.80;;;;;;;3.10;78.23;103439.94;5074612;28;20021;-69
2022/01/12 00:56:59;;;;;;;27.95;15.13;;;;;;;3.05;78.70;103442.09;5073981;28;20032;-70
2022/01/12 00:59:25;;;;;;;26.27;15.40;;;;;;;3.02;79.88;103440.50;5063614;28;20049;-70
2022/01/12 01:01:50;;;;;;;23.63;15.05;;;;;;;2.98;80.65;103442.53;5051238;28;20055;-70
2022/01/12 01:04:15;;;;;;;26.08;15.35;;;;;;;2.96;80.94;103441.81;5055071;28;20025;-70
2022/01/12 01:06:41;;;;;;;27.65;16.20;;;;;;;2.95;81.01;103441.91;5054715;28;20056;-69
2022/01/12 01:09:07;;;;;;;25.65;15.57;;;;;;;2.94;81.95;103457.09;5062376;28;20035;-69
2022/01/12 01:11:33;;;;;;;25.63;16.23;;;;;;;2.93;82.11;103458.06;5074654;28;20387;-70
2022/01/12 01:14:00;;;;;;;27.52;17.08;;;;;;;2.90;82.33;103452.94;5073299;28;20159;-69
2022/01/12 01:27:17;;;;;;;28.10;17.40;;;;;;;2.81;84.89;103437.56;5054347;28;20044;-69
2022/01/12 01:29:42;;;;;;;28.35;17.15;;;;;;;2.80;84.81;103435.84;5066263;28;20071;-69
2022/01/12 01:32:08;;;;;;;27.92;17.25;;;;;;;2.78;85.36;103429.75;5074787;28;20411;-70
2022/01/12 01:34:34;;;;;;;26.35;16.35;;;;;;;2.77;85.57;103428.03;5072888;28;20025;-69
2022/01/12 01:36:59;;;;;;;29.33;17.48;;;;;;;2.83;85.17;103438.28;5070539;28;20353;-70
2022/01/12 01:39:26;;;;;;;30.13;17.63;;;;;;;2.80;85.01;103452.72;5054081;28;20060;-69
2022/01/12 01:42:00;;;;;;;29.00;17.52;;;;;;;2.80;85.36;103449.22;5052609;28;20025;-70
2022/01/12 01:55:15;;;;;;;26.67;17.38;;;;;;;2.70;85.72;103459.69;5073896;28;20055;-70
2022/01/12 01:57:41;;;;;;;30.90;18.17;;;;;;;2.73;86.41;103445.25;5064699;28;20037;-69
2022/01/12 02:00:10;;;;;;;29.42;18.70;;;;;;;2.74;85.92;103430.94;5053996;28;20099;-70
2022/01/12 02:02:35;;;;;;;25.70;16.92;;;;;;;2.75;85.96;103427.28;5050932;28;20472;-70
2022/01/12 02:05:00;;;;;;;30.73;18.73;;;;;;;2.73;86.43;103426.53;5052450;28;20075;-69
2022/01/12 02:07:26;;;;;;;30.73;17.70;;;;;;;2.71;86.60;103405.25;5059631;28;20028;-70
2022/01/12 02:09:51;;;;;;;29.00;17.60;;;;;;;2.72;86.06;103414.13;5073047;28;20537;-69
2022/01/12 02:12:28;;;;;;;30.60;17.63;;;;;;;2.73;86.39;103421.19;5073638;28;20434;-70
2022/01/12 02:14:55;;;;;;;28.38;17.70;;;;;;;2.72;86.59;103422.16;5073327;28;20029;-70
2022/01/12 02:17:24;;;;;;;31.50;18.67;;;;;;;2.70;86.34;103413.41;5067539;28;20036;-70
2022/01/12 02:20:08;;;;;;;29.35;19.17;;;;;;;2.69;86.75;103425.03;5053380;28;20032;-70
2022/01/12 02:36:22;;;;;;;29.38;18.08;;;;;;;2.71;86.78;103444.53;5072988;28;20047;-69
2022/01/12 02:41:32;;;;;;;30.50;18.40;;;;;;;2.70;86.05;103458.84;5052887;28;20044;-70
2022/01/12 02:55:10;;;;;;;36.00;18.40;;;;;;;2.64;86.43;103463.69;5053030;28;20128;-70
2022/01/12 02:57:35;;;;;;;27.33;18.48;;;;;;;2.68;86.04;103469.66;5058578;28;20103;-70
2022/01/12 03:00:13;;;;;;;34.90;18.67;;;;;;;2.63;86.24;103469.13;5072760;28;20051;-70
2022/01/12 03:02:41;;;;;;;32.45;18.67;;;;;;;2.63;86.08;103469.97;5070168;28;20024;-70
2022/01/12 03:05:33;;;;;;;30.95;18.80;;;;;;;2.60;86.11;103472.88;5072751;28;20442;-70
2022/01/12 03:08:02;;;;;;;33.15;19.52;;;;;;;2.64;86.19;103486.88;5062850;28;20447;-70
2022/01/12 03:10:28;;;;;;;31.40;18.45;;;;;;;2.58;86.09;103493.53;5052769;28;20025;-70
2022/01/12 03:12:53;;;;;;;32.13;18.75;;;;;;;2.60;86.34;103496.94;5052407;28;20453;-70
2022/01/12 03:15:19;;;;;;;30.63;19.25;;;;;;;2.59;86.47;103505.91;5052618;28;20400;-70
2022/01/12 03:17:44;;;;;;;32.38;19.38;;;;;;;2.60;86.54;103504.94;5059177;28;20035;-70
2022/01/12 03:20:10;;;;;;;32.85;20.13;;;;;;;2.60;85.65;103512.97;5070639;28;20037;-71
2022/01/12 03:22:37;;;;;;;34.88;20.13;;;;;;;2.55;86.35;103509.78;5072402;28;20024;-69
2022/01/12 03:25:03;;;;;;;28.38;19.17;;;;;;;2.57;86.43;103513.19;5072547;28;20031;-68
2022/01/12 03:27:29;;;;;;;33.58;20.02;;;;;;;2.59;86.67;103515.75;5067386;28;20036;-68
2022/01/12 03:29:56;;;;;;;31.25;18.98;;;;;;;2.57;86.77;103515.84;5052269;28;20377;-70
2022/01/12 03:32:34;;;;;;;30.98;19.23;;;;;;;2.56;86.37;103522.16;5052435;28;20044;-73
2022/01/12 03:35:08;;;;;;;30.65;19.65;;;;;;;2.54;86.86;103512.56;5051019;28;20456;-70
2022/01/12 03:37:54;;;;;;;32.78;19.92;;;;;;;2.52;86.50;103509.09;5056234;28;20031;-68
2022/01/12 03:40:20;;;;;;;32.90;19.95;;;;;;;2.55;86.60;103509.78;5071500;28;20446;-68
2022/01/12 03:42:46;;;;;;;33.80;20.90;;;;;;;2.59;86.56;103507.72;5072031;28;20456;-68
2022/01/12 03:45:11;;;;;;;34.63;20.65;;;;;;;2.56;87.14;103506.13;5072459;28;20032;-68
2022/01/12 03:47:37;;;;;;;36.78;20.63;;;;;;;2.59;86.58;103500.56;5066409;28;20033;-68
2022/01/12 03:50:02;;;;;;;36.63;20.50;;;;;;;2.59;86.34;103510.41;5052089;28;20439;-69
2022/01/12 03:52:27;;;;;;;34.60;21.38;;;;;;;2.57;87.08;103496.31;5052237;28;20033;-68
2022/01/12 03:54:53;;;;;;;36.95;21.10;;;;;;;2.56;86.81;103499.91;5050631;28;20036;-69
2022/01/12 03:57:18;;;;;;;34.70;21.10;;;;;;;2.54;87.24;103504.53;5055011;28;20028;-68
2022/01/12 03:59:44;;;;;;;32.90;20.65;;;;;;;2.54;86.82;103515.22;5071583;28;20051;-68
2022/01/12 04:02:09;;;;;;;36.75;20.90;;;;;;;2.53;87.04;103517.03;5068535;28;20115;-68
2022/01/12 04:04:42;;;;;;;36.88;21.33;;;;;;;2.52;87.27;103528.69;5072166;28;20376;-69
2022/01/12 04:09:51;;;;;;;38.30;22.23;;;;;;;2.51;87.21;103534.13;5051658;28;20060;-69
2022/01/12 04:12:17;;;;;;;39.80;22.05;;;;;;;2.49;87.40;103526.19;5052112;28;20468;-68
2022/01/12 04:14:42;;;;;;;41.80;22.25;;;;;;;2.48;87.86;103524.50;5050419;28;20489;-68
2022/01/12 04:17:08;;;;;;;39.63;21.83;;;;;;;2.45;88.63;103530.91;5052844;28;20031;-68
2022/01/12 04:19:34;;;;;;;35.72;22.58;;;;;;;2.48;88.01;103536.06;5071723;28;20036;-69
2022/01/12 04:22:08;;;;;;;35.55;22.20;;;;;;;2.48;87.95;103527.19;5070454;28;20085;-69
2022/01/12 04:24:35;;;;;;;40.15;22.85;;;;;;;2.49;88.28;103528.88;5071924;28;20119;-68
2022/01/12 04:27:00;;;;;;;42.28;22.55;;;;;;;2.49;88.44;103534.22;5071579;28;20499;-69
2022/01/12 04:29:25;;;;;;;37.42;22.35;;;;;;;2.49;88.17;103536.91;5051872;28;20113;-68
2022/01/12 04:31:51;;;;;;;40.90;23.85;;;;;;;2.54;88.46;103532.09;5053694;28;20107;-68
2022/01/12 04:34:16;;;;;;;38.13;22.88;;;;;;;2.55;88.26;103523.13;5055344;28;20106;-69
2022/01/12 04:36:41;;;;;;;38.03;23.15;;;;;;;2.58;88.92;103525.59;5055047;28;20029;-69
2022/01/12 04:39:06;;;;;;;40.53;24.75;;;;;;;2.59;89.05;103521.09;5071891;28;20403;-68
2022/01/12 04:41:32;;;;;;;40.50;24.02;;;;;;;2.60;88.79;103522.81;5074626;28;20060;-69
2022/01/12 04:43:58;;;;;;;41.65;23.27;;;;;;;2.59;88.59;103519.25;5068746;28;20483;-70
2022/01/12 04:46:30;;;;;;;40.85;23.58;;;;;;;2.62;88.22;103527.06;5068408;28;20037;-69
2022/01/12 04:49:24;;;;;;;42.40;24.15;;;;;;;2.60;88.65;103521.00;5060211;28;20117;-69
2022/01/12 04:51:51;;;;;;;41.22;23.35;;;;;;;2.65;88.05;103526.84;5055319;28;20484;-69
2022/01/12 04:54:16;;;;;;;38.40;24.23;;;;;;;2.64;88.67;103522.50;5055009;28;20464;-69
2022/01/12 04:56:41;;;;;;;42.88;25.48;;;;;;;2.63;88.73;103512.75;5062146;28;20041;-68
2022/01/12 04:59:07;;;;;;;43.47;25.15;;;;;;;2.70;88.70;103513.16;5053478;28;20041;-69
2022/01/12 05:01:36;;;;;;;42.40;25.02;;;;;;;2.62;88.57;103502.16;5052632;28;20472;-69
2022/01/12 05:06:55;;;;;;;43.17;24.90;;;;;;;2.59;88.66;103505.91;5067505;28;20090;-69
2022/01/12 05:09:42;;;;;;;40.78;24.80;;;;;;;2.56;88.42;103502.59;5074716;28;20107;-68
2022/01/12 05:15:04;;;;;;;39.63;24.30;;;;;;;2.60;88.67;103515.63;5074631;28;20046;-69
2022/01/12 05:17:29;;;;;;;41.25;25.10;;;;;;;2.59;88.39;103513.91;5059842;28;20357;-68
2022/01/12 05:19:55;;;;;;;42.70;25.83;;;;;;;2.58;89.12;103520.25;5069965;28;20081;-69
2022/01/12 05:22:20;;;;;;;47.63;25.77;;;;;;;2.55;88.69;103509.78;5063355;28;20029;-69
2022/01/12 05:24:45;;;;;;;43.00;25.98;;;;;;;2.57;88.74;103515.84;5054060;28;20059;-68
2022/01/12 05:27:11;;;;;;;46.33;26.30;;;;;;;2.60;89.29;103520.16;5063918;28;20036;-68
2022/01/12 05:29:36;;;;;;;43.58;26.55;;;;;;;2.61;89.26;103519.16;5074178;28;20031;-69
2022/01/12 05:32:01;;;;;;;42.15;26.20;;;;;;;2.63;88.85;103523.44;5073683;28;20055;-68
2022/01/12 05:34:27;;;;;;;43.75;25.88;;;;;;;2.61;89.19;103525.38;5074146;28;20472;-68
2022/01/12 05:36:52;;;;;;;39.70;26.08;;;;;;;2.60;88.84;103537.03;5065648;28;20524;-69
2022/01/12 05:39:18;;;;;;;49.15;27.08;;;;;;;2.58;89.05;103541.63;5059588;28;20035;-68
2022/01/12 05:41:43;;;;;;;49.00;27.17;;;;;;;2.57;89.11;103547.94;5073825;28;20032;-68
2022/01/12 05:44:10;;;;;;;47.95;27.35;;;;;;;2.59;89.18;103540.66;5072968;28;20028;-68
2022/01/12 05:46:37;;;;;;;40.28;26.08;;;;;;;2.62;89.18;103544.94;5065850;28;20051;-69
2022/01/12 05:51:46;;;;;;;48.20;27.65;;;;;;;2.69;89.02;103548.91;5073774;28;20063;-68
2022/01/12 05:54:12;;;;;;;45.90;27.83;;;;;;;2.72;89.18;103547.81;5074050;28;20068;-68
2022/01/12 05:56:37;;;;;;;45.53;27.85;;;;;;;2.72;88.50;103546.03;5073673;28;20376;-68
2022/01/12 05:59:02;;;;;;;45.10;27.02;;;;;;;2.71;88.86;103546.13;5073587;28;20048;-69
2022/01/12 06:01:27;;;;;;;44.65;27.05;;;;;;;2.70;88.64;103545.25;5071585;28;20476;-69
2022/01/12 06:03:53;;;;;;;42.72;28.00;;;;;;;2.69;88.60;103537.34;5068049;28;20116;-68
2022/01/12 06:06:19;;;;;;;44.65;27.25;;;;;;;2.70;88.84;103545.25;5054872;28;20033;-69
2022/01/12 06:08:44;;;;;;;43.40;27.23;;;;;;;2.70;89.11;103552.44;5068716;28;20064;-69
2022/01/12 06:11:10;;;;;;;45.10;27.55;;;;;;;2.69;88.57;103553.38;5072143;28;20033;-69
2022/01/12 06:13:35;;;;;;;46.05;27.90;;;;;;;2.69;88.68;103559.59;5063486;28;20029;-69
2022/01/12 06:16:00;;;;;;;47.92;29.05;;;;;;;2.69;88.79;103545.34;5053309;28;20044;-69
2022/01/12 06:18:26;;;;;;;43.05;27.60;;;;;;;2.65;88.65;103552.75;5055140;28;20029;-69
2022/01/12 06:20:51;;;;;;;47.75;29.00;;;;;;;2.68;88.87;103560.56;5057807;28;20028;-69
2022/01/12 06:23:17;;;;;;;49.65;29.85;;;;;;;2.68;89.50;103565.06;5053218;28;20039;-69
2022/01/12 06:25:42;;;;;;;48.50;28.63;;;;;;;2.67;88.93;103572.19;5053439;28;20037;-69
2022/01/12 06:31:10;;;;;;;47.22;28.33;;;;;;;2.66;89.25;103584.72;5048931;28;20131;-68
2022/01/12 06:33:36;;;;;;;46.83;29.10;;;;;;;2.64;89.53;103588.47;5061289;28;20388;-68
2022/01/12 06:36:02;;;;;;;48.08;28.52;;;;;;;2.63;89.29;103589.44;5071476;28;20025;-69
2022/01/12 06:38:28;;;;;;;43.72;27.77;;;;;;;2.59;89.54;103590.59;5064416;28;20025;-68
2022/01/12 06:40:53;;;;;;;46.30;28.85;;;;;;;2.56;89.06;103602.34;5064160;28;20038;-69
2022/01/12 06:43:18;;;;;;;47.85;29.35;;;;;;;2.54;89.26;103598.94;5066413;28;20040;-68
2022/01/12 06:45:43;;;;;;;47.45;29.08;;;;;;;2.53;90.00;103607.06;5072707;28;20052;-69
2022/01/12 06:48:09;;;;;;;49.60;28.58;;;;;;;2.49;89.72;103609.06;5068552;28;20041;-69
2022/01/12 06:50:34;;;;;;;48.13;29.83;;;;;;;2.51;89.62;103617.84;5053765;28;20111;-69
2022/01/12 06:53:00;;;;;;;48.63;29.70;;;;;;;2.51;89.60;103620.53;5064356;28;20058;-69
2022/01/12 06:55:25;;;;;;;49.28;30.08;;;;;;;2.47;90.09;103603.81;5064982;28;20037;-69
2022/01/12 06:57:50;;;;;;;51.25;29.25;;;;;;;2.47;89.99;103603.81;5053718;28;20478;-69
2022/01/12 07:00:16;;;;;;;48.20;29.00;;;;;;;2.48;90.23;103610.03;5056964;28;20086;-69
2022/01/12 07:02:41;;;;;;;49.42;29.88;;;;;;;2.50;90.09;103617.97;5065218;28;20033;-69
2022/01/12 07:05:07;;;;;;;47.08;29.60;;;;;;;2.53;90.04;103615.94;5072588;28;20025;-69
2022/01/12 07:07:32;;;;;;;46.22;28.50;;;;;;;2.58;90.71;103611.16;5072055;28;20036;-69
2022/01/12 07:09:57;;;;;;;50.65;30.30;;;;;;;2.60;89.88;103613.72;5068778;28;20036;-69
2022/01/12 07:12:23;;;;;;;48.28;29.13;;;;;;;2.61;89.87;103626.97;5052351;28;20442;-69
2022/01/12 07:14:48;;;;;;;48.75;29.52;;;;;;;2.62;90.26;103638.50;5052676;28;20024;-69
2022/01/12 07:17:13;;;;;;;49.13;29.25;;;;;;;2.63;90.18;103641.09;5054088;28;20050;-69
2022/01/12 07:19:39;;;;;;;48.65;28.77;;;;;;;2.64;90.31;103634.78;5069970;28;20040;-68
2022/01/12 07:22:05;;;;;;;47.03;29.25;;;;;;;2.62;90.36;103631.34;5064191;28;20029;-68
2022/01/12 07:24:30;;;;;;;46.65;30.35;;;;;;;2.61;89.83;103629.66;5072489;28;20109;-69
2022/01/12 07:26:55;;;;;;;47.08;28.38;;;;;;;2.64;90.50;103632.13;5072295;28;20475;-68
2022/01/12 07:29:20;;;;;;;45.58;29.40;;;;;;;2.62;90.04;103631.34;5054889;28;20044;-68
2022/01/12 07:31:46;;;;;;;46.85;29.35;;;;;;;2.62;90.14;103636.69;5072234;28;20024;-69
2022/01/12 07:34:14;;;;;;;47.55;29.33;;;;;;;2.65;90.50;103635.63;5060495;28;20041;-69
2022/01/12 07:36:40;;;;;;;50.05;29.30;;;;;;;2.65;90.39;103640.97;5067876;28;20108;-70
2022/01/12 07:39:05;;;;;;;52.10;28.92;;;;;;;2.68;90.52;103654.13;5069438;28;20551;-69
2022/01/12 07:41:30;;;;;;;93.55;32.25;;;;;;;2.68;90.62;103664.00;5071520;28;20086;-69
2022/01/12 07:43:55;;;;;;;46.33;28.55;;;;;;;2.70;90.60;103670.06;5071839;28;20035;-69
2022/01/12 07:46:21;;;;;;;49.28;30.20;;;;;;;2.69;90.18;103687.06;5070703;28;20032;-69
2022/01/12 07:48:46;;;;;;;46.80;29.33;;;;;;;2.72;90.34;103684.19;5069829;28;20430;-69
2022/01/12 07:51:11;;;;;;;46.53;29.65;;;;;;;2.72;90.12;103686.88;5070331;28;20052;-69
2022/01/12 07:53:39;;;;;;;44.05;29.65;;;;;;;2.71;90.65;103688.69;5071886;28;20040;-69
2022/01/12 07:56:04;;;;;;;48.30;30.38;;;;;;;2.70;90.34;103691.47;5062637;28;20472;-70
2022/01/12 07:58:30;;;;;;;48.50;29.77;;;;;;;2.71;90.52;103701.22;5071050;28;20040;-71
2022/01/12 08:00:55;;;;;;;47.97;29.85;;;;;;;2.70;90.41;103696.81;5069150;28;20044;-69
2022/01/12 08:03:22;;;;;;;52.28;31.77;;;;;;;2.71;90.17;103701.22;5071804;28;20113;-70
2022/01/12 08:05:47;;;;;;;51.72;30.52;;;;;;;2.72;90.24;103710.94;5071186;28;20025;-70
2022/01/12 08:08:14;;;;;;;54.70;31.83;;;;;;;2.68;90.34;103712.97;5066980;28;20040;-70
2022/01/12 08:10:40;;;;;;;53.97;31.90;;;;;;;2.66;90.80;103714.91;5075902;28;20119;-70
2022/01/12 08:13:05;;;;;;;57.35;32.15;;;;;;;2.69;90.98;103721.84;5074025;28;20194;-70
2022/01/12 08:15:30;;;;;;;56.30;33.67;;;;;;;2.69;90.88;103729.84;5075478;28;20028;-70
2022/01/12 08:17:55;;;;;;;63.70;34.60;;;;;;;2.69;91.26;103730.72;5073589;28;20041;-69
2022/01/12 08:20:26;;;;;;;67.18;35.15;;;;;;;2.68;91.40;103736.19;5060893;28;20033;-70
2022/01/12 08:22:51;;;;;;;62.70;35.15;;;;;;;2.70;91.30;103724.41;5073951;28;20082;-69
2022/01/12 08:25:17;;;;;;;66.00;34.53;;;;;;;2.72;91.11;103738.53;5075188;28;20025;-71
2022/01/12 08:27:42;;;;;;;65.97;35.95;;;;;;;2.72;91.70;103737.66;5056292;28;20159;-75
2022/01/12 08:30:16;;;;;;;78.00;37.95;;;;;;;2.73;91.18;103742.06;5070400;28;20115;-74
2022/01/12 08:32:41;;;;;;;72.07;35.42;;;;;;;2.75;91.38;103742.81;5075220;28;20036;-70
2022/01/12 08:35:07;;;;;;;72.72;35.83;;;;;;;2.75;91.75;103741.00;5075582;28;20390;-71
2022/01/12 08:37:32;;;;;;;73.22;37.33;;;;;;;2.76;91.43;103732.03;5058263;28;20036;-71
2022/01/12 08:39:58;;;;;;;75.50;35.95;;;;;;;2.79;92.02;103741.66;5061224;28;20031;-73
2022/01/12 08:42:23;;;;;;;76.25;37.97;;;;;;;2.82;92.15;103736.97;5053884;28;20037;-71
2022/01/12 08:44:48;;;;;;;72.05;35.72;;;;;;;2.86;91.98;103734.94;5054058;28;20032;-75
2022/01/12 08:47:13;;;;;;;81.38;35.42;;;;;;;2.89;91.92;103739.25;5053754;28;20039;-70
2022/01/12 08:49:39;;;;;;;75.22;36.25;;;;;;;2.91;91.80;103740.84;5066582;28;20042;-69
2022/01/12 08:52:05;;;;;;;78.57;36.85;;;;;;;2.92;92.14;103739.88;5073293;28;20068;-69
2022/01/12 08:54:30;;;;;;;88.95;36.45;;;;;;;2.95;92.14;103739.66;5074515;28;20086;-69
2022/01/12 08:56:55;;;;;;;82.05;36.95;;;;;;;3.00;91.87;103742.03;5073963;28;20032;-70
2022/01/12 08:59:22;;;;;;;72.57;36.58;;;;;;;3.02;91.73;103745.50;5065916;28;20097;-70
2022/01/12 09:01:48;;;;;;;73.25;36.28;;;;;;;3.06;92.43;103752.31;5052659;28;20036;-70
2022/01/12 09:04:13;;;;;;;93.53;37.47;;;;;;;3.07;92.10;103748.69;5055774;28;20032;-70
2022/01/12 09:06:38;;;;;;;77.30;37.03;;;;;;;3.09;92.25;103748.59;5072661;28;20487;-70
2022/01/12 09:09:04;;;;;;;75.03;36.83;;;;;;;3.11;92.16;103757.34;5065165;28;20037;-70
2022/01/12 09:11:30;;;;;;;79.30;35.65;;;;;;;3.14;92.58;103765.19;5064873;28;20163;-70
2022/01/12 09:13:55;;;;;;;77.40;37.15;;;;;;;3.13;92.58;103774.19;5054752;28;20025;-70
2022/01/12 09:16:20;;;;;;;93.07;40.45;;;;;;;3.13;92.38;103776.88;5054392;28;20036;-70
2022/01/12 09:18:46;;;;;;;95.53;37.83;;;;;;;3.14;92.36;103779.44;5068170;28;20156;-70
2022/01/12 09:21:11;;;;;;;91.43;37.45;;;;;;;3.13;92.25;103796.44;5065804;28;20021;-70
2022/01/12 09:23:37;;;;;;;92.18;36.20;;;;;;;3.10;92.47;103793.97;5055738;28;20025;-69
2022/01/12 09:26:03;;;;;;;79.63;35.72;;;;;;;3.09;93.09;103786.91;5054864;28;20033;-69
2022/01/12 09:28:30;;;;;;;89.28;36.83;;;;;;;3.10;92.96;103787.78;5063200;28;20037;-69
2022/01/12 09:30:56;;;;;;;101.05;38.47;;;;;;;3.12;93.52;103801.91;5059695;28;20036;-70
2022/01/12 09:33:21;;;;;;;97.90;35.17;;;;;;;3.09;93.14;103802.94;5072407;28;20494;-70
2022/01/12 09:35:49;;;;;;;95.50;35.58;;;;;;;3.09;93.70;103804.78;5072825;28;20103;-71
2022/01/12 09:38:16;;;;;;;88.20;34.75;;;;;;;3.10;93.73;103810.03;5065615;28;20037;-74
2022/01/12 09:40:42;;;;;;;81.13;35.33;;;;;;;3.12;93.83;103808.09;5052703;28;20043;-75
2022/01/12 09:43:07;;;;;;;97.07;34.20;;;;;;;3.13;93.65;103806.28;5054915;28;20043;-71
2022/01/12 09:45:33;;;;;;;68.15;28.30;;;;;;;3.16;93.67;103808.75;5064834;28;20406;-72
2022/01/12 09:47:59;;;;;;;81.13;29.95;;;;;;;3.14;94.07;103811.53;5074137;28;20030;-72
2022/01/12 09:50:24;;;;;;;77.30;29.83;;;;;;;3.12;93.92;103808.09;5073324;28;20020;-71
2022/01/12 09:52:50;;;;;;;73.15;28.23;;;;;;;3.13;93.68;103808.97;5059141;28;20064;-71
2022/01/12 09:55:17;;;;;;;70.55;26.52;;;;;;;3.11;94.00;103817.09;5052524;28;20037;-69
2022/01/12 09:57:42;;;;;;;65.13;27.02;;;;;;;3.17;93.92;103814.00;5062809;28;20067;-72
2022/01/12 10:00:09;;;;;;;70.15;26.20;;;;;;;3.22;94.24;103813.69;5061411;28;20072;-71
2022/01/12 10:02:35;;;;;;;58.20;25.85;;;;;;;3.23;94.14;103820.78;5051273;28;20037;-70
2022/01/12 10:05:03;;;;;;;63.58;25.88;;;;;;;3.25;94.37;103829.56;5053793;28;20040;-71
2022/01/12 10:07:28;;;;;;;84.95;25.10;;;;;;;3.26;94.25;103843.78;5054995;28;20035;-71
2022/01/12 10:09:59;;;;;;;95.85;25.80;;;;;;;3.23;94.31;103842.19;5072417;28;20117;-70
2022/01/12 10:12:26;;;;;;;86.57;26.88;;;;;;;3.23;94.11;103839.50;5073568;28;20059;-72
2022/01/12 10:15:00;;;;;;;66.82;26.83;;;;;;;3.28;94.13;103855.25;5073312;28;20033;-71
2022/01/12 10:17:35;;;;;;;76.65;27.35;;;;;;;3.30;94.75;103847.97;5061248;28;20345;-72
2022/01/12 10:20:12;;;;;;;87.95;28.70;;;;;;;3.29;94.77;103847.13;5061192;28;20071;-73
2022/01/12 10:22:43;;;;;;;101.70;27.40;;;;;;;3.28;94.63;103834.69;5053318;28;20464;-72
2022/01/12 10:25:19;;;;;;;86.28;29.98;;;;;;;3.31;94.33;103842.53;5070465;28;20028;-71
2022/01/12 10:27:45;;;;;;;67.65;26.83;;;;;;;3.28;94.21;103842.72;5066017;28;20056;-72
2022/01/12 10:30:19;;;;;;;53.60;25.95;;;;;;;3.30;94.50;103838.13;5067494;28;20047;-74
2022/01/12 10:32:45;;;;;;;72.72;24.73;;;;;;;3.32;94.68;103825.50;5071908;28;20054;-74
2022/01/12 10:35:10;;;;;;;136.63;24.75;;;;;;;3.34;94.22;103828.09;5073165;28;20033;-71
2022/01/12 10:37:35;;;;;;;114.47;25.10;;;;;;;3.31;94.33;103817.59;5072043;28;20482;-73
2022/01/12 10:40:02;;;;;;;151.90;25.83;;;;;;;3.31;94.58;103820.25;5071990;28;20032;-71
2022/01/12 10:42:28;;;;;;;155.23;26.58;;;;;;;3.26;94.34;103825.03;5073059;28;20113;-73
2022/01/12 10:44:56;;;;;;;64.75;23.70;;;;;;;3.28;94.41;103834.69;5072703;28;20109;-74
2022/01/12 10:47:29;;;;;;;127.93;24.75;;;;;;;3.26;94.63;103836.63;5080723;28;20119;-74
2022/01/12 10:49:54;;;;;;;131.82;25.17;;;;;;;3.25;94.63;103829.56;5058349;28;20032;-71
2022/01/12 10:52:21;;;;;;;130.63;24.87;;;;;;;3.24;94.77;103838.53;5052155;28;20490;-73
2022/01/12 10:54:51;;;;;;;81.65;26.20;;;;;;;3.26;94.93;103839.31;5052913;28;20263;-73
2022/01/12 10:57:32;;;;;;;86.88;25.23;;;;;;;3.29;95.06;103833.75;5052771;28;20021;-73
2022/01/12 11:00:18;;;;;;;62.05;27.25;;;;;;;3.35;94.39;103840.47;5053888;28;20068;-72
2022/01/12 11:02:48;;;;;;;125.50;28.48;;;;;;;3.32;94.87;103846.03;5050455;28;20112;-73
2022/01/12 11:05:14;;;;;;;70.60;27.35;;;;;;;3.43;95.17;103848.00;5052529;28;20026;-73
2022/01/12 11:07:40;;;;;;;111.63;28.58;;;;;;;3.46;94.43;103853.16;5052776;28;20045;-73
2022/01/12 11:10:07;;;;;;;70.43;26.85;;;;;;;3.45;94.13;103840.72;5052595;28;20025;-73
2022/01/12 11:12:35;;;;;;;63.53;27.05;;;;;;;3.44;94.38;103834.53;5052665;28;20042;-73
2022/01/12 11:15:03;;;;;;;87.35;28.42;;;;;;;3.46;94.17;103842.47;5052445;28;20029;-72
2022/01/12 11:17:28;;;;;;;55.08;26.85;;;;;;;3.52;94.40;103840.22;5056702;28;20040;-74
2022/01/12 11:20:14;;;;;;;57.13;26.77;;;;;;;3.57;94.80;103839.03;5074157;28;20028;-73
2022/01/12 11:22:39;;;;;;;71.75;26.48;;;;;;;3.57;93.95;103834.53;5072169;28;20031;-74
2022/01/12 11:25:21;;;;;;;51.97;25.20;;;;;;;3.60;94.01;103842.38;5072562;28;20028;-74
2022/01/12 11:27:51;;;;;;;74.43;26.63;;;;;;;3.62;93.96;103848.47;5070906;28;20332;-72
2022/01/12 11:30:19;;;;;;;51.25;25.30;;;;;;;3.64;93.76;103851.91;5052442;28;20432;-74
2022/01/12 11:32:54;;;;;;;56.55;27.42;;;;;;;3.62;93.49;103856.50;5071854;28;20387;-73
2022/01/12 11:35:25;;;;;;;52.15;26.55;;;;;;;3.64;93.46;103848.34;5072189;28;20099;-73
2022/01/12 11:37:51;;;;;;;52.00;24.77;;;;;;;3.60;92.42;103846.88;5072371;28;20032;-72
2022/01/12 11:40:16;;;;;;;51.95;25.40;;;;;;;3.60;92.77;103860.25;5072216;28;20031;-72
2022/01/12 11:42:42;;;;;;;53.85;26.00;;;;;;;3.61;92.71;103857.47;5076172;28;20613;-71
2022/01/12 11:45:19;;;;;;;49.15;25.13;;;;;;;3.60;92.57;103850.38;5073099;28;20452;-72
2022/01/12 11:47:45;;;;;;;51.22;24.02;;;;;;;3.58;92.45;103852.34;5076492;28;20062;-72
2022/01/12 11:50:11;;;;;;;45.33;23.77;;;;;;;3.53;92.09;103846.41;5063900;28;20060;-72
2022/01/12 11:52:36;;;;;;;53.78;25.48;;;;;;;3.56;92.32;103832.81;5075993;28;20376;-72
2022/01/12 11:55:14;;;;;;;52.88;25.15;;;;;;;3.60;92.87;103834.31;5076547;28;20047;-73
2022/01/12 11:57:45;;;;;;;50.72;26.00;;;;;;;3.64;92.51;103833.16;5078683;28;20021;-72
2022/01/12 12:00:12;;;;;;;51.53;25.38;;;;;;;3.67;92.80;103830.28;5072021;28;20056;-73
2022/01/12 12:02:51;;;;;;;53.25;25.50;;;;;;;3.72;92.65;103833.47;5071770;28;20379;-71
2022/01/12 12:05:26;;;;;;;53.22;24.92;;;;;;;3.71;91.88;103844.28;5069388;28;20047;-72
2022/01/12 12:07:54;;;;;;;50.42;25.13;;;;;;;3.70;91.63;103834.56;5085648;28;20046;-71
2022/01/12 12:10:22;;;;;;;54.03;26.30;;;;;;;3.69;91.77;103846.22;5079042;28;20039;-72
2022/01/12 12:12:49;;;;;;;55.47;25.92;;;;;;;3.73;91.69;103842.38;5061438;28;20029;-71
2022/01/12 12:15:14;;;;;;;57.45;26.70;;;;;;;3.75;92.30;103843.13;5059911;28;20361;-71
2022/01/12 12:17:41;;;;;;;56.00;27.08;;;;;;;3.77;91.71;103841.19;5074690;28;20025;-72
2022/01/12 12:20:13;;;;;;;52.88;26.27;;;;;;;3.71;91.68;103847.84;5074398;28;20033;-71
2022/01/12 12:22:40;;;;;;;56.30;27.38;;;;;;;3.69;91.93;103852.44;5069273;28;20081;-71
2022/01/12 12:25:15;;;;;;;56.35;26.23;;;;;;;3.69;91.81;103849.75;5075776;28;20047;-70
2022/01/12 12:27:45;;;;;;;51.53;26.83;;;;;;;3.66;91.63;103843.78;5075109;28;20162;-72